createdAt,value
2022-10-13T02:37:05.239Z,101696.56
2022-10-13T02:42:26.420Z,101700.31
2022-10-13T02:47:49.878Z,101698.44
2022-10-13T02:53:10.598Z,101685.28
2022-10-13T02:58:31.504Z,101687.88
2022-10-13T03:03:52.596Z,101687.38
2022-10-13T03:09:13.663Z,101674.31
2022-10-13T05:33:20.982Z,101578.25
2022-10-13T05:38:42.002Z,101586.34
2022-10-13T05:44:07.562Z,101579.09
2022-10-13T05:49:28.225Z,101568.56
2022-10-13T05:54:54.596Z,101576.09
2022-10-13T06:00:18.986Z,101565.91
2022-10-13T06:05:40.780Z,101562.69
2022-10-13T06:11:03.347Z,101565.69
2022-10-13T06:16:24.381Z,101562.56
2022-10-13T06:21:46.596Z,101563.09
2022-10-13T06:27:07.502Z,101568.59
2022-10-13T06:32:28.299Z,101569.38
2022-10-13T06:37:49.306Z,101575.31
2022-10-13T06:43:10.708Z,101583.06
2022-10-13T06:48:35.422Z,101575.56
2022-10-13T06:53:57.156Z,101578.53
2022-10-13T06:59:19.833Z,101589.25
2022-10-13T07:04:40.885Z,101581.84
2022-10-13T07:10:01.646Z,101583.09
2022-10-13T07:15:24.515Z,101572.34
2022-10-13T07:20:46.624Z,101579.78
2022-10-13T07:26:09.553Z,101567.38
2022-10-13T07:31:30.450Z,101558.19
2022-10-13T07:36:51.401Z,101554.66
2022-10-13T07:42:12.080Z,101554.41
2022-10-13T07:47:32.967Z,101550.69
2022-10-13T07:52:53.805Z,101544.16
2022-10-13T07:58:14.602Z,101543.19
2022-10-13T08:09:01.318Z,101539.16
2022-10-13T08:14:22.219Z,101538.44
2022-10-13T08:19:43.023Z,101543.81
2022-10-13T08:25:04.081Z,101530.00
2022-10-13T08:30:26.242Z,101528.41
2022-10-13T08:35:47.371Z,101522.28
2022-10-13T08:41:32.420Z,101518.03
2022-10-13T08:47:08.215Z,101510.31
2022-10-13T08:52:43.359Z,101526.25
2022-10-13T08:58:14.861Z,101523.50
2022-10-13T09:04:17.931Z,101519.44
2022-10-13T09:09:40.044Z,101520.22
2022-10-13T09:15:05.339Z,101522.81
2022-10-13T09:20:29.814Z,101508.69
2022-10-13T09:25:52.319Z,101513.56
2022-10-13T09:31:19.520Z,101513.25
2022-10-13T09:37:05.565Z,101488.84
2022-10-13T09:42:29.100Z,101487.56
2022-10-13T09:47:59.224Z,101476.72
2022-10-13T09:53:26.163Z,101471.31
2022-10-13T09:59:13.557Z,101453.03
2022-10-13T10:04:42.959Z,101466.72
2022-10-13T10:10:12.485Z,101460.28
2022-10-13T10:15:53.100Z,101475.81
2022-10-13T10:21:32.590Z,101485.72
2022-10-13T10:26:59.706Z,101472.66
2022-10-13T10:32:35.668Z,101470.00
2022-10-13T10:38:05.842Z,101466.16
2022-10-13T10:43:55.990Z,101457.69
2022-10-13T10:49:39.488Z,101449.63
2022-10-13T10:55:07.668Z,101441.81
2022-10-13T11:00:39.211Z,101426.78
2022-10-13T11:06:02.900Z,101424.19
2022-10-13T11:11:26.699Z,101412.34
2022-10-13T11:16:58.232Z,101404.84
2022-10-13T11:22:30.144Z,101394.34
2022-10-13T11:27:50.932Z,101395.09
2022-10-13T11:33:32.114Z,101377.78
2022-10-13T11:39:00.200Z,101379.78
2022-10-13T11:44:35.095Z,101377.44
2022-10-13T11:50:08.888Z,101371.94
2022-10-13T11:55:30.904Z,101381.28
2022-10-13T12:01:04.323Z,101379.13
2022-10-13T12:06:37.047Z,101381.72
2022-10-13T12:12:02.008Z,101370.25
2022-10-13T12:17:26.334Z,101355.66
2022-10-13T12:22:48.767Z,101354.59
2022-10-13T12:28:19.281Z,101349.00
2022-10-13T12:33:44.083Z,101338.00
2022-10-13T12:39:11.944Z,101340.47
2022-10-13T12:44:33.451Z,101352.00
2022-10-13T12:50:23.300Z,101344.94
2022-10-13T12:55:56.048Z,101346.22
2022-10-13T13:01:27.356Z,101349.03
2022-10-13T13:07:02.520Z,101351.66
2022-10-13T13:12:30.236Z,101346.25
2022-10-13T13:17:58.245Z,101348.09
2022-10-13T13:23:22.100Z,101350.63
2022-10-13T13:28:46.467Z,101351.75
2022-10-13T13:34:07.289Z,101349.28
2022-10-13T13:39:28.259Z,101349.50
2022-10-13T13:44:49.473Z,101345.03
2022-10-13T13:50:24.614Z,101349.47
2022-10-13T13:55:52.233Z,101351.81
2022-10-13T14:01:14.038Z,101352.72
2022-10-13T14:06:34.876Z,101329.09
2022-10-13T14:11:55.733Z,101332.13
2022-10-13T14:17:16.355Z,101317.50
2022-10-13T14:22:38.932Z,101297.88
2022-10-13T14:27:59.846Z,101296.38
2022-10-13T14:33:21.014Z,101297.66
2022-10-13T14:38:41.794Z,101307.03
2022-10-13T14:44:02.369Z,101301.78
2022-10-13T14:49:23.478Z,101304.09
2022-10-13T14:54:45.300Z,101297.38
2022-10-13T15:00:06.717Z,101287.88
2022-10-13T15:05:27.518Z,101282.53
2022-10-13T15:10:48.393Z,101288.31
2022-10-13T15:16:14.844Z,101287.22
2022-10-13T15:21:35.791Z,101289.72
2022-10-13T15:26:57.247Z,101282.78
2022-10-13T15:32:23.045Z,101278.94
2022-10-13T15:37:47.969Z,101281.88
2022-10-13T15:43:09.254Z,101284.84
2022-10-13T15:48:30.728Z,101274.50
2022-10-13T15:53:51.529Z,101271.34
2022-10-13T15:59:12.464Z,101276.72
2022-10-13T16:04:37.247Z,101272.03
2022-10-13T16:09:58.670Z,101283.59
2022-10-13T16:15:20.097Z,101282.53
2022-10-13T16:20:45.330Z,101285.22
2022-10-13T16:26:07.557Z,101284.94
2022-10-13T16:31:28.741Z,101291.19
2022-10-13T16:36:49.703Z,101284.16
2022-10-13T16:42:11.025Z,101285.28
2022-10-13T16:47:31.628Z,101287.47
2022-10-13T16:52:52.846Z,101282.66
2022-10-13T16:58:13.979Z,101277.97
2022-10-13T17:03:36.418Z,101278.91
2022-10-13T17:08:59.118Z,101275.63
2022-10-13T17:14:20.103Z,101269.22
2022-10-13T17:19:40.644Z,101270.72
2022-10-13T17:25:01.388Z,101261.84
2022-10-13T17:30:22.419Z,101261.84
2022-10-13T17:35:43.010Z,101274.16
2022-10-13T17:41:05.095Z,101275.56
2022-10-13T17:46:38.227Z,101277.75
2022-10-13T17:51:59.646Z,101273.94
2022-10-13T17:57:20.698Z,101277.78
2022-10-13T18:02:41.761Z,101273.38
2022-10-13T18:08:02.444Z,101265.63
2022-10-13T18:13:23.305Z,101262.94
2022-10-13T18:18:45.074Z,101259.22
2022-10-13T18:24:06.672Z,101257.84
2022-10-13T18:29:27.150Z,101257.63
2022-10-13T18:34:48.099Z,101270.56
2022-10-13T18:40:09.829Z,101254.88
2022-10-13T18:45:34.698Z,101257.84
2022-10-13T18:50:55.318Z,101255.38
2022-10-13T18:56:20.618Z,101251.03
2022-10-13T19:01:41.641Z,101254.56
2022-10-13T19:07:02.612Z,101250.72
2022-10-13T19:12:23.592Z,101252.78
2022-10-13T19:17:44.223Z,101245.44
2022-10-13T19:23:05.082Z,101256.38
2022-10-13T19:28:26.149Z,101252.63
2022-10-13T19:33:50.230Z,101255.16
2022-10-13T19:39:31.284Z,101255.91
2022-10-13T19:44:52.391Z,101253.78
2022-10-13T19:50:13.274Z,101251.59
2022-10-13T19:55:39.092Z,101244.47
2022-10-13T20:01:08.279Z,101240.69
2022-10-13T20:06:29.158Z,101240.97
2022-10-13T20:11:51.120Z,101255.72
2022-10-13T20:17:14.027Z,101251.16
2022-10-13T20:22:34.946Z,101252.38
2022-10-13T20:27:56.164Z,101249.53
2022-10-13T20:33:17.261Z,101245.16
2022-10-13T20:38:38.980Z,101248.19
2022-10-13T20:44:01.133Z,101241.75
2022-10-13T20:49:24.330Z,101245.66
2022-10-13T20:54:45.186Z,101235.22
2022-10-13T21:00:06.583Z,101232.69
2022-10-13T21:05:27.766Z,101239.81
2022-10-13T21:10:50.208Z,101235.91
2022-10-13T21:16:20.130Z,101235.94
2022-10-13T21:21:41.012Z,101235.47
2022-10-13T21:27:01.828Z,101227.34
2022-10-13T21:32:22.658Z,101236.50
2022-10-13T21:37:43.608Z,101220.03
2022-10-13T21:43:04.357Z,101222.38
2022-10-13T21:48:26.251Z,101221.81
2022-10-13T21:53:55.469Z,101232.41
